createdAt,value
2023-02-02T00:00:39.536Z,96954.28
2023-02-02T00:03:10.877Z,97000.69
2023-02-02T00:05:38.776Z,97002.28
2023-02-02T00:08:10.126Z,96998.59
2023-02-02T00:10:45.304Z,97001.09
2023-02-02T00:13:15.228Z,96966.09
2023-02-02T00:15:43.058Z,96985.81
2023-02-02T00:18:12.974Z,96985.22
2023-02-02T00:20:40.808Z,96993.81
2023-02-02T00:23:11.281Z,96990.53
2023-02-02T00:25:39.130Z,96898.66
2023-02-02T00:28:15.521Z,96989.44
2023-02-02T00:30:43.370Z,96934.31
2023-02-02T00:33:11.115Z,96984.50
2023-02-02T00:35:46.479Z,96986.88
2023-02-02T00:38:19.659Z,96999.19
2023-02-02T00:40:47.689Z,97007.41
2023-02-02T00:43:16.843Z,96923.66
2023-02-02T00:45:43.724Z,97001.34
2023-02-02T00:48:11.787Z,96990.16
2023-02-02T00:50:42.267Z,96773.78
2023-02-02T00:53:10.047Z,96983.75
2023-02-02T00:55:38.115Z,96989.25
2023-02-02T00:58:05.926Z,96980.75
2023-02-02T01:00:35.068Z,96962.88
2023-02-02T01:03:06.774Z,96966.66
2023-02-02T01:05:36.964Z,96977.50
2023-02-02T01:08:07.457Z,96981.28
2023-02-02T01:10:44.198Z,96965.00
2023-02-02T01:13:14.360Z,96995.66
2023-02-02T01:15:43.598Z,96950.38
2023-02-02T01:18:12.111Z,97006.69
2023-02-02T01:20:40.049Z,97015.22
2023-02-02T01:23:07.945Z,97019.75
2023-02-02T01:25:38.602Z,97009.50
2023-02-02T01:28:06.609Z,96968.75
2023-02-02T01:30:34.473Z,96993.66
2023-02-02T01:33:03.600Z,96995.56
2023-02-02T01:35:33.504Z,96996.44
2023-02-02T01:38:06.702Z,97000.84
2023-02-02T01:40:34.528Z,97001.69
2023-02-02T01:43:02.303Z,96971.28
2023-02-02T01:45:32.992Z,96987.06
2023-02-02T01:48:03.941Z,96990.66
2023-02-02T01:50:36.543Z,96967.16
2023-02-02T01:53:06.368Z,96987.50
2023-02-02T01:55:36.110Z,96941.28
2023-02-02T01:58:09.180Z,96975.97
2023-02-02T02:00:37.905Z,96983.13
2023-02-02T02:03:11.374Z,96963.94
2023-02-02T02:05:42.309Z,96983.38
2023-02-02T02:08:14.678Z,96965.38
2023-02-02T02:10:47.282Z,96994.75
2023-02-02T02:13:15.788Z,96966.78
2023-02-02T02:16:05.868Z,96929.72
2023-02-02T02:18:47.145Z,96891.25
2023-02-02T02:21:45.167Z,96981.28
2023-02-02T02:24:56.218Z,96985.03
2023-02-02T02:27:39.905Z,96995.75
2023-02-02T02:30:36.833Z,96976.78
2023-02-02T02:33:07.694Z,96943.94
2023-02-02T02:35:38.835Z,96984.03
2023-02-02T02:38:12.441Z,96980.97
2023-02-02T02:40:48.032Z,96932.69
2023-02-02T02:43:22.642Z,96985.00
2023-02-02T02:45:58.072Z,96920.38
2023-02-02T02:48:28.434Z,96976.47
2023-02-02T02:51:07.188Z,96971.84
2023-02-02T02:53:35.845Z,96963.66
2023-02-02T02:56:11.558Z,96988.56
2023-02-02T02:58:53.970Z,96939.00
2023-02-02T03:01:30.771Z,96982.78
2023-02-02T03:04:11.155Z,96948.03
2023-02-02T03:06:46.576Z,96980.28
2023-02-02T03:09:16.783Z,96997.31
2023-02-02T03:11:45.292Z,96973.75
2023-02-02T03:14:16.824Z,97002.88
2023-02-02T03:16:44.799Z,96956.53
2023-02-02T03:19:20.460Z,96988.00
2023-02-02T03:21:48.398Z,97001.44
2023-02-02T03:24:16.193Z,97011.69
2023-02-02T03:26:48.384Z,96983.38
2023-02-02T03:29:27.002Z,96992.44
2023-02-02T03:31:55.273Z,96972.16
2023-02-02T03:34:24.770Z,96992.28
2023-02-02T03:36:56.263Z,96990.97
2023-02-02T03:39:26.917Z,96989.72
2023-02-02T03:41:56.822Z,96985.63
2023-02-02T03:44:31.308Z,96948.66
2023-02-02T03:46:59.115Z,97001.31
2023-02-02T03:49:29.538Z,96972.63
2023-02-02T03:51:57.302Z,97001.72
2023-02-02T03:54:27.846Z,96996.88
2023-02-02T03:56:57.729Z,97023.19
2023-02-02T03:59:25.961Z,97004.03
2023-02-02T04:01:54.309Z,97013.75
2023-02-02T04:04:30.254Z,97030.13
2023-02-02T04:07:03.226Z,97032.22
2023-02-02T04:09:33.546Z,96974.78
2023-02-02T04:12:01.490Z,96966.78
2023-02-02T04:14:29.666Z,97020.81
2023-02-02T04:17:02.871Z,97006.88
2023-02-02T04:19:38.276Z,97017.25
2023-02-02T04:22:06.638Z,97006.03
2023-02-02T04:24:38.037Z,96992.84
2023-02-02T04:27:05.969Z,97021.97
2023-02-02T04:29:33.908Z,96997.44
2023-02-02T04:32:01.770Z,97031.19
2023-02-02T04:34:30.763Z,97024.69
2023-02-02T04:37:02.820Z,97033.63
2023-02-02T04:39:31.189Z,97005.16
2023-02-02T04:41:59.099Z,96999.19
2023-02-02T04:44:29.518Z,97044.84
2023-02-02T04:46:57.413Z,96997.25
2023-02-02T04:49:33.543Z,97052.56
2023-02-02T04:52:03.187Z,97063.72
2023-02-02T04:54:31.515Z,97051.66
2023-02-02T04:56:59.887Z,97064.56
2023-02-02T04:59:34.578Z,97071.31
2023-02-02T05:02:05.382Z,97073.59
2023-02-02T05:04:33.657Z,97072.91
2023-02-02T05:07:05.998Z,97000.84
2023-02-02T05:09:36.413Z,97074.88
2023-02-02T05:12:04.998Z,97076.09
2023-02-02T05:14:34.294Z,97044.97
2023-02-02T05:17:02.468Z,97090.63
2023-02-02T05:19:31.191Z,97091.84
2023-02-02T05:22:05.425Z,97007.09
2023-02-02T05:24:34.431Z,97085.72
2023-02-02T05:27:02.296Z,97089.91
2023-02-02T05:29:30.867Z,97038.91
2023-02-02T05:32:00.635Z,97095.44
2023-02-02T05:34:33.527Z,97016.28
2023-02-02T05:37:03.296Z,97101.38
2023-02-02T05:39:33.662Z,97111.19
2023-02-02T05:42:01.538Z,97116.41
2023-02-02T05:44:29.395Z,97110.88
2023-02-02T05:47:00.376Z,97115.34
2023-02-02T05:49:31.620Z,97043.28
2023-02-02T05:52:05.545Z,97073.25
2023-02-02T05:54:33.644Z,97113.78
2023-02-02T05:57:05.339Z,97093.75
2023-02-02T05:59:33.177Z,97125.75
2023-02-02T06:02:01.027Z,97107.75
2023-02-02T06:04:28.891Z,97103.78
2023-02-02T06:06:59.568Z,97110.34
2023-02-02T06:09:28.948Z,97101.81
2023-02-02T06:11:57.109Z,97097.44
2023-02-02T06:14:30.828Z,97073.72
2023-02-02T06:17:00.268Z,97110.19
2023-02-02T06:19:28.499Z,97151.34
2023-02-02T06:21:56.706Z,97120.09
2023-02-02T06:24:24.731Z,97120.94
2023-02-02T06:26:56.747Z,97117.41
2023-02-02T06:29:24.978Z,97125.44
2023-02-02T06:31:53.525Z,97120.81
2023-02-02T06:34:22.366Z,97125.22
2023-02-02T06:36:50.459Z,97130.09
2023-02-02T06:39:18.584Z,97121.75
2023-02-02T06:41:46.732Z,97120.66
2023-02-02T06:44:20.893Z,97151.31
2023-02-02T06:46:51.293Z,97147.59
2023-02-02T06:49:26.459Z,97149.41
2023-02-02T06:51:54.377Z,97125.41
2023-02-02T06:54:22.323Z,97139.53
2023-02-02T06:56:50.192Z,97128.16
2023-02-02T06:59:23.025Z,97135.94
2023-02-02T07:01:53.723Z,97152.78
2023-02-02T07:04:22.269Z,97113.84
2023-02-02T07:06:54.410Z,97132.16
2023-02-02T07:09:22.608Z,97150.19
2023-02-02T07:11:51.428Z,97136.59
2023-02-02T07:14:20.740Z,97134.94
2023-02-02T07:16:48.667Z,97149.56
2023-02-02T07:19:21.466Z,96949.47
2023-02-02T07:21:49.503Z,97138.09
2023-02-02T07:24:17.694Z,97144.88
2023-02-02T07:26:46.809Z,97153.94
2023-02-02T07:29:15.245Z,97154.28
2023-02-02T07:31:47.382Z,97145.53
2023-02-02T07:34:21.136Z,97152.03
2023-02-02T07:36:49.111Z,97156.41
2023-02-02T07:39:17.461Z,97125.66
2023-02-02T07:41:50.443Z,97133.56
2023-02-02T07:44:21.277Z,97162.75
2023-02-02T07:46:52.899Z,97167.34
2023-02-02T07:49:21.405Z,97152.34
2023-02-02T07:51:52.173Z,97155.50
2023-02-02T07:54:21.922Z,97157.19
2023-02-02T07:56:52.768Z,97144.94
2023-02-02T07:59:20.705Z,97147.16
2023-02-02T08:01:52.966Z,97140.50
2023-02-02T08:04:20.937Z,97144.50
2023-02-02T08:06:49.146Z,97135.53
2023-02-02T08:09:17.083Z,97140.03
2023-02-02T08:11:45.039Z,97154.94
2023-02-02T08:14:14.377Z,97146.47
2023-02-02T08:16:42.343Z,97147.47
2023-02-02T08:19:13.749Z,97113.22
2023-02-02T08:21:41.599Z,97149.88
2023-02-02T08:24:09.652Z,97148.16
2023-02-02T08:26:45.017Z,97155.75
2023-02-02T08:29:18.150Z,97147.28
2023-02-02T08:31:48.368Z,97157.34
2023-02-02T08:34:23.049Z,97164.38
2023-02-02T08:36:53.477Z,97173.56
2023-02-02T08:39:24.688Z,97184.41
2023-02-02T08:41:55.851Z,97180.72
2023-02-02T08:44:26.414Z,97180.72
2023-02-02T08:46:56.046Z,97140.19
2023-02-02T08:49:25.951Z,97129.69
2023-02-02T08:51:57.783Z,97208.38
2023-02-02T08:54:38.299Z,97207.31
2023-02-02T08:57:08.911Z,97227.88
2023-02-02T08:59:36.827Z,97224.22
2023-02-02T09:02:05.563Z,97219.19
2023-02-02T09:04:40.457Z,97238.63
2023-02-02T09:07:08.923Z,97238.41
2023-02-02T09:09:39.552Z,97234.84
2023-02-02T09:12:15.545Z,97179.47
2023-02-02T09:14:48.377Z,97143.22
2023-02-02T09:17:18.828Z,97229.66
2023-02-02T09:19:53.760Z,97212.88
2023-02-02T09:22:22.071Z,97180.69
2023-02-02T09:24:51.753Z,97231.03
2023-02-02T09:27:22.506Z,97229.13
2023-02-02T09:29:56.535Z,97228.81
2023-02-02T09:32:24.633Z,97221.50
2023-02-02T09:34:56.691Z,97238.56
2023-02-02T09:37:32.969Z,97246.63
2023-02-02T09:40:03.666Z,97247.22
2023-02-02T09:42:45.126Z,97153.56
2023-02-02T09:45:20.398Z,97238.34
2023-02-02T09:47:56.524Z,97237.69
2023-02-02T09:50:39.643Z,97249.78
2023-02-02T09:53:15.726Z,97243.84
2023-02-02T09:55:45.751Z,97243.88
2023-02-02T09:58:20.583Z,97262.03
2023-02-02T10:01:01.844Z,97255.66
2023-02-02T10:03:40.499Z,97271.47
2023-02-02T10:06:25.963Z,97263.56
2023-02-02T10:08:59.328Z,97234.75
2023-02-02T10:11:37.482Z,97251.16
2023-02-02T10:14:13.584Z,97249.06
2023-02-02T10:16:42.002Z,97244.38
2023-02-02T10:19:15.680Z,97252.13
2023-02-02T10:21:53.986Z,97248.94
2023-02-02T10:24:24.795Z,97258.13
2023-02-02T10:26:55.077Z,97252.13
2023-02-02T10:29:48.631Z,97249.13
2023-02-02T10:32:23.661Z,97235.00
2023-02-02T10:35:14.493Z,97261.53
2023-02-02T10:37:51.789Z,97264.22
2023-02-02T10:40:31.190Z,97251.72
2023-02-02T10:43:33.565Z,97284.03
2023-02-02T10:46:04.995Z,97286.91
2023-02-02T10:48:35.941Z,97275.56
2023-02-02T10:51:08.399Z,97282.03
2023-02-02T10:53:37.939Z,97274.63
2023-02-02T10:56:12.031Z,97279.94
2023-02-02T10:58:51.566Z,97289.47
2023-02-02T11:01:22.785Z,97248.66
2023-02-02T11:04:14.204Z,97283.97
2023-02-02T11:06:52.559Z,97256.66
2023-02-02T11:09:26.011Z,97280.16
2023-02-02T11:12:01.980Z,97268.19
2023-02-02T11:14:45.175Z,97283.16
2023-02-02T11:17:20.577Z,97270.19
2023-02-02T11:19:50.989Z,97257.94
2023-02-02T11:22:30.572Z,97246.25
2023-02-02T11:25:05.205Z,97260.22
2023-02-02T11:27:34.825Z,97269.13
2023-02-02T11:30:12.539Z,97264.19
2023-02-02T11:32:41.545Z,97211.81
2023-02-02T11:35:21.954Z,97259.00
2023-02-02T11:38:03.104Z,97249.84
2023-02-02T11:40:36.286Z,97267.06
2023-02-02T11:43:16.580Z,97271.22
2023-02-02T11:45:49.577Z,97267.19
2023-02-02T11:48:19.327Z,97257.25
2023-02-02T11:50:50.579Z,97270.81
2023-02-02T11:53:29.129Z,97267.19
2023-02-02T11:56:10.707Z,97259.13
2023-02-02T11:58:45.728Z,97005.00
2023-02-02T12:01:27.724Z,97164.59
2023-02-02T12:03:59.821Z,97186.47
2023-02-02T12:06:30.598Z,97234.56
2023-02-02T12:09:05.268Z,97253.47
2023-02-02T12:11:42.801Z,97250.91
2023-02-02T12:14:28.088Z,97242.19
2023-02-02T12:17:07.946Z,97256.19
2023-02-02T12:19:47.526Z,97254.88
2023-02-02T12:22:36.284Z,97212.91
2023-02-02T12:25:11.196Z,97249.63
2023-02-02T12:27:47.973Z,97263.50
2023-02-02T12:30:26.447Z,97263.06
2023-02-02T12:33:14.985Z,97254.59
2023-02-02T12:35:55.221Z,97260.53
2023-02-02T12:38:31.608Z,97263.75
2023-02-02T12:41:23.720Z,97258.34
2023-02-02T12:44:00.605Z,97192.34
2023-02-02T12:46:41.559Z,97273.50
2023-02-02T12:49:32.655Z,97245.41
2023-02-02T12:52:23.459Z,97262.06
2023-02-02T12:55:13.561Z,97223.41
2023-02-02T12:57:57.801Z,97206.75
2023-02-02T13:00:54.646Z,97251.94
2023-02-02T13:03:30.367Z,97278.69
2023-02-02T13:06:17.298Z,97276.56
2023-02-02T13:08:54.598Z,97262.41
2023-02-02T13:11:35.087Z,97284.91
2023-02-02T13:14:14.189Z,97278.88
2023-02-02T13:16:49.886Z,97277.84
2023-02-02T13:19:27.644Z,97290.84
2023-02-02T13:22:00.671Z,97236.38
2023-02-02T13:24:33.708Z,97288.00
2023-02-02T13:27:09.515Z,97284.06
2023-02-02T13:29:47.845Z,97289.78
2023-02-02T13:32:22.696Z,97290.72
2023-02-02T13:34:53.812Z,97284.03
2023-02-02T13:37:27.645Z,97260.75
2023-02-02T13:39:57.862Z,97251.06
2023-02-02T13:42:38.121Z,97265.91
2023-02-02T13:45:18.792Z,97310.19
2023-02-02T13:47:55.286Z,97310.38
2023-02-02T13:50:30.147Z,97292.78
2023-02-02T13:53:17.330Z,97321.50
2023-02-02T13:56:04.012Z,97305.22
2023-02-02T13:58:55.126Z,97321.50
2023-02-02T14:01:23.584Z,97308.81
2023-02-02T14:03:55.708Z,97271.31
2023-02-02T14:06:33.069Z,97315.25
2023-02-02T14:09:06.648Z,97315.78
2023-02-02T14:11:37.332Z,97108.56
2023-02-02T14:14:29.771Z,97312.69
2023-02-02T14:16:57.792Z,97312.84
2023-02-02T14:19:57.976Z,97306.44
2023-02-02T14:22:44.624Z,97299.31
2023-02-02T14:25:55.678Z,97312.19
2023-02-02T14:28:47.888Z,97316.59
2023-02-02T14:31:44.292Z,97321.47
2023-02-02T14:34:39.529Z,97319.06
2023-02-02T14:37:43.005Z,97320.47
2023-02-02T14:40:25.527Z,97294.75
2023-02-02T14:43:19.129Z,97326.63
2023-02-02T14:45:48.781Z,97323.34
2023-02-02T14:48:21.183Z,97314.88
2023-02-02T14:50:54.089Z,97322.59
2023-02-02T14:53:29.188Z,97333.06
2023-02-02T14:56:06.769Z,97282.84
2023-02-02T14:58:40.297Z,97333.34
2023-02-02T15:01:28.046Z,97280.81
2023-02-02T15:03:57.433Z,97314.22
2023-02-02T15:06:34.619Z,97303.13
2023-02-02T15:09:31.222Z,97335.50
2023-02-02T15:12:35.626Z,97330.94
2023-02-02T15:15:25.256Z,97339.94
2023-02-02T15:18:16.696Z,97342.00
2023-02-02T15:20:48.899Z,97324.47
2023-02-02T15:23:25.906Z,97325.38
2023-02-02T15:26:02.369Z,97346.28
2023-02-02T15:28:39.470Z,97338.53
2023-02-02T15:31:16.353Z,97355.56
2023-02-02T15:33:51.503Z,97359.25
2023-02-02T15:36:25.581Z,97373.94
2023-02-02T15:39:00.866Z,97362.50
2023-02-02T15:41:38.660Z,97382.03
2023-02-02T15:44:19.736Z,97330.59
2023-02-02T15:46:49.088Z,97369.53
2023-02-02T15:49:34.647Z,97385.50
2023-02-02T15:52:11.108Z,97368.69
2023-02-02T15:54:43.633Z,97368.81
2023-02-02T15:57:26.091Z,97361.88
2023-02-02T15:59:57.039Z,97369.78
2023-02-02T16:02:31.335Z,97428.25
2023-02-02T16:05:09.548Z,97399.91
2023-02-02T16:07:37.455Z,97400.78
2023-02-02T16:10:07.229Z,97395.84
2023-02-02T16:12:37.113Z,97384.44
2023-02-02T16:15:06.636Z,97402.44
2023-02-02T16:17:43.366Z,97403.34
2023-02-02T16:20:14.702Z,97316.75
2023-02-02T16:22:56.121Z,97426.69
2023-02-02T16:25:25.190Z,97415.41
2023-02-02T16:27:54.699Z,97397.00
2023-02-02T16:30:33.486Z,97327.47
2023-02-02T16:33:28.167Z,97437.47
2023-02-02T16:35:57.283Z,97462.03
2023-02-02T16:38:32.349Z,97469.63
2023-02-02T16:41:06.481Z,97468.53
2023-02-02T16:43:38.863Z,97474.66
2023-02-02T16:46:08.989Z,97456.34
2023-02-02T16:48:38.668Z,97500.22
2023-02-02T16:51:33.578Z,97502.66
2023-02-02T16:54:06.456Z,97507.63
2023-02-02T16:56:36.666Z,97482.47
2023-02-02T16:59:09.603Z,97503.75
2023-02-02T17:01:39.808Z,97472.25
2023-02-02T17:04:15.980Z,97514.78
2023-02-02T17:06:52.335Z,97533.47
2023-02-02T17:09:36.308Z,97529.00
2023-02-02T17:12:16.793Z,97546.47
2023-02-02T17:14:54.725Z,97528.97
2023-02-02T17:17:22.671Z,97544.38
2023-02-02T17:19:51.263Z,97548.09
2023-02-02T17:22:24.202Z,97529.50
2023-02-02T17:24:56.865Z,97544.50
2023-02-02T17:27:28.166Z,97558.50
2023-02-02T17:29:59.207Z,97565.31
2023-02-02T17:32:27.519Z,97546.84
2023-02-02T17:35:04.503Z,97563.25
2023-02-02T17:37:34.482Z,97571.94
2023-02-02T17:40:07.111Z,97579.44
2023-02-02T17:42:35.854Z,97572.81
2023-02-02T17:45:07.422Z,97539.56
2023-02-02T17:47:37.923Z,97567.81
2023-02-02T17:50:06.529Z,97554.91
2023-02-02T17:52:34.833Z,97505.47
2023-02-02T17:55:05.873Z,97513.25
2023-02-02T17:57:33.726Z,97390.13
2023-02-02T18:00:04.848Z,97563.53
2023-02-02T18:02:35.118Z,97562.00
2023-02-02T18:05:03.746Z,97573.28
2023-02-02T18:07:31.992Z,97577.78
2023-02-02T18:10:01.680Z,97574.06
2023-02-02T18:12:37.514Z,97575.75
2023-02-02T18:15:14.287Z,97547.22
2023-02-02T18:17:45.048Z,97577.88
2023-02-02T18:20:16.115Z,97573.78
2023-02-02T18:22:48.738Z,97516.81
2023-02-02T18:25:16.739Z,97579.28
2023-02-02T18:27:46.872Z,97550.88
2023-02-02T18:30:15.507Z,97563.63
2023-02-02T18:32:46.629Z,97546.19
2023-02-02T18:35:14.666Z,97570.06
2023-02-02T18:37:45.126Z,97568.00
2023-02-02T18:40:14.118Z,97562.50
2023-02-02T18:42:42.208Z,97574.69
2023-02-02T18:45:11.111Z,97583.22
2023-02-02T18:47:41.332Z,97569.84
2023-02-02T18:50:12.375Z,97590.22
2023-02-02T18:52:40.221Z,97536.78
2023-02-02T18:55:17.977Z,97541.59
2023-02-02T18:57:46.498Z,97540.53
2023-02-02T19:00:17.371Z,97553.84
2023-02-02T19:02:48.342Z,97539.38
2023-02-02T19:05:40.211Z,97572.22
2023-02-02T19:08:08.168Z,97492.97
2023-02-02T19:10:37.949Z,97571.97
2023-02-02T19:13:18.135Z,97575.34
2023-02-02T19:15:51.091Z,97578.31
2023-02-02T19:18:24.243Z,97573.66
2023-02-02T19:20:54.787Z,97565.59
2023-02-02T19:23:24.352Z,97558.50
2023-02-02T19:25:54.156Z,97528.81
2023-02-02T19:28:24.681Z,97558.00
2023-02-02T19:30:55.916Z,97556.72
2023-02-02T19:33:29.725Z,97569.00
2023-02-02T19:36:00.932Z,97571.53
2023-02-02T19:38:33.782Z,97573.16
2023-02-02T19:41:04.292Z,97576.25
2023-02-02T19:43:33.239Z,97580.84
2023-02-02T19:46:01.667Z,97567.75
2023-02-02T19:48:35.596Z,97582.66
2023-02-02T19:51:27.910Z,97565.22
2023-02-02T19:53:58.921Z,97601.91
2023-02-02T19:56:39.655Z,97571.69
2023-02-02T19:59:12.414Z,97588.59
2023-02-02T20:01:40.635Z,97526.28
2023-02-02T20:04:15.699Z,97576.84
2023-02-02T20:06:58.038Z,97527.47
2023-02-02T20:09:37.304Z,97574.84
2023-02-02T20:12:22.231Z,97579.28
2023-02-02T20:14:50.409Z,97578.44
2023-02-02T20:17:29.248Z,97579.31
2023-02-02T20:19:57.156Z,97491.75
2023-02-02T20:22:29.773Z,97579.31
2023-02-02T20:24:58.717Z,97578.72
2023-02-02T20:27:40.647Z,97582.69
2023-02-02T20:30:31.019Z,97566.63
2023-02-02T20:33:01.532Z,97528.16
2023-02-02T20:35:36.770Z,97579.13
2023-02-02T20:38:21.763Z,97530.13
2023-02-02T20:40:49.669Z,97555.38
2023-02-02T20:43:20.034Z,97470.72
2023-02-02T20:45:51.947Z,97506.59
2023-02-02T20:48:19.906Z,97508.53
2023-02-02T20:50:48.086Z,97583.47
2023-02-02T20:53:23.490Z,97577.69
2023-02-02T20:55:57.254Z,97578.69
2023-02-02T20:58:29.290Z,97564.88
2023-02-02T21:01:00.355Z,97584.38
2023-02-02T21:03:32.706Z,97571.09
2023-02-02T21:06:01.435Z,97578.75
2023-02-02T21:08:30.673Z,97538.66
2023-02-02T21:10:58.521Z,97589.28
2023-02-02T21:13:29.508Z,97586.44
2023-02-02T21:15:59.115Z,97585.44
2023-02-02T21:18:27.247Z,97567.13
2023-02-02T21:20:56.915Z,97587.22
2023-02-02T21:23:24.956Z,97600.06
2023-02-02T21:26:07.174Z,97595.97
2023-02-02T21:28:39.603Z,97590.31
2023-02-02T21:31:12.176Z,97580.78
2023-02-02T21:33:45.605Z,97589.41
2023-02-02T21:36:28.108Z,97589.69
2023-02-02T21:39:04.212Z,97594.53
2023-02-02T21:41:36.337Z,97555.41
2023-02-02T21:44:13.010Z,97590.22
2023-02-02T21:46:44.499Z,97562.31
2023-02-02T21:49:23.260Z,97553.19
2023-02-02T21:51:52.284Z,97600.19
2023-02-02T21:54:25.477Z,97607.09
2023-02-02T21:56:57.330Z,97591.88
2023-02-02T21:59:30.257Z,97607.59
2023-02-02T22:01:58.427Z,97609.41
2023-02-02T22:04:28.523Z,97605.44
2023-02-02T22:07:01.523Z,97609.63
2023-02-02T22:09:31.784Z,97346.53
2023-02-02T22:12:03.561Z,97604.72
2023-02-02T22:14:38.423Z,97626.56
2023-02-02T22:17:20.010Z,97600.03
2023-02-02T22:19:48.100Z,97606.81
2023-02-02T22:22:20.316Z,97602.78
2023-02-02T22:24:54.404Z,97619.31
2023-02-02T22:27:40.077Z,97602.94
2023-02-02T22:30:19.535Z,97606.13
2023-02-02T22:33:03.764Z,97614.78
2023-02-02T22:35:31.601Z,97613.59
2023-02-02T22:37:59.366Z,97582.50
2023-02-02T22:40:29.910Z,97615.94
2023-02-02T22:43:01.218Z,97619.66
2023-02-02T22:45:30.520Z,97610.84
2023-02-02T22:47:59.607Z,97616.91
2023-02-02T22:50:43.488Z,97559.97
2023-02-02T22:53:12.477Z,97609.56
2023-02-02T22:55:41.584Z,97620.50
2023-02-02T22:58:14.073Z,97591.84
2023-02-02T23:00:48.020Z,97586.16
2023-02-02T23:03:15.906Z,97620.16
2023-02-02T23:05:49.414Z,97617.28
2023-02-02T23:08:22.084Z,97571.28
2023-02-02T23:10:52.438Z,97608.59
2023-02-02T23:13:24.357Z,97610.69
2023-02-02T23:16:13.310Z,97609.25
2023-02-02T23:18:43.786Z,97629.19
2023-02-02T23:21:17.643Z,97626.34
2023-02-02T23:23:45.448Z,97605.44
2023-02-02T23:26:13.301Z,97619.53
2023-02-02T23:28:42.986Z,97648.66
2023-02-02T23:31:12.774Z,97658.16
2023-02-02T23:33:45.359Z,97649.28
2023-02-02T23:36:13.414Z,97648.28
2023-02-02T23:38:44.113Z,97656.16
2023-02-02T23:41:13.585Z,97664.03
2023-02-02T23:43:44.077Z,97655.31
2023-02-02T23:46:14.961Z,97668.69
2023-02-02T23:48:45.540Z,97660.00
2023-02-02T23:51:15.348Z,97677.09
2023-02-02T23:53:45.333Z,97666.66
2023-02-02T23:56:16.482Z,97601.16
2023-02-02T23:58:45.592Z,97661.59
